Time;durP1;ratioP1;P1;durP2;ratioP2;P2;SDS_P1;SDS_P2;PMS_P1;PMS_P2;Temp;Humidity;BMP_temperature;BMP_pressure;BME280_temperature;BME280_humidity;BME280_pressure;Samples;Min_cycle;Max_cycle;Signal;HPM_P1;HPM_P2
2021/12/23 00:01:43;;;;;;;19.33;13.87;;;;;;;-2.09;85.58;101362.97;5093848;28;20232;-73
2021/12/23 00:04:10;;;;;;;20.67;13.67;;;;;;;-2.09;85.79;101347.56;5093206;28;20188;-73
2021/12/23 00:06:38;;;;;;;18.97;12.67;;;;;;;-2.10;85.86;101348.41;5093212;28;20431;-73
2021/12/23 00:09:05;;;;;;;19.73;14.43;;;;;;;-2.15;86.26;101342.31;5093203;28;20190;-73
2021/12/23 00:11:33;;;;;;;19.17;14.40;;;;;;;-2.09;86.20;101346.69;5093487;28;20210;-73
2021/12/23 00:14:08;;;;;;;25.50;17.00;;;;;;;-1.97;86.30;101329.88;5093102;28;20492;-73
2021/12/23 00:19:35;;;;;;;21.30;14.47;;;;;;;-2.01;86.49;101320.38;5093363;28;20503;-73
2021/12/23 00:24:49;;;;;;;21.13;14.63;;;;;;;-1.91;86.61;101331.69;5093487;28;20259;-73
2021/12/23 00:27:15;;;;;;;25.83;15.23;;;;;;;-1.94;86.69;101337.59;5093515;28;20251;-74
2021/12/23 00:29:42;;;;;;;26.70;16.90;;;;;;;-1.85;86.75;101315.56;5093238;28;20190;-74
2021/12/23 00:32:09;;;;;;;25.07;16.00;;;;;;;-1.89;86.75;101324.88;5092958;28;20720;-74
2021/12/23 00:34:37;;;;;;;41.27;15.57;;;;;;;-1.85;86.92;101312.97;5092857;28;20454;-74
2021/12/23 00:37:06;;;;;;;29.03;17.30;;;;;;;-1.87;86.70;101309.50;5093249;28;20251;-74
2021/12/23 00:39:33;;;;;;;27.43;15.70;;;;;;;-1.95;87.11;101297.41;5092853;28;20249;-74
2021/12/23 00:42:06;;;;;;;36.87;16.70;;;;;;;-1.95;87.22;101284.56;5092890;28;20191;-74
2021/12/23 00:44:39;;;;;;;28.77;16.13;;;;;;;-1.88;87.35;101279.56;5093116;28;20264;-72
2021/12/23 00:47:06;;;;;;;26.43;16.17;;;;;;;-1.83;87.33;101267.69;5093181;28;20480;-72
2021/12/23 00:49:32;;;;;;;27.60;15.93;;;;;;;-1.79;87.16;101272.00;5092816;28;20643;-72
2021/12/23 00:52:01;;;;;;;27.40;14.70;;;;;;;-1.77;87.19;101278.06;5095164;28;20190;-73
2021/12/23 00:54:28;;;;;;;27.60;16.23;;;;;;;-1.66;86.09;101256.84;5096361;28;20244;-73
2021/12/23 00:56:54;;;;;;;17.97;13.87;;;;;;;-1.58;85.06;101262.13;5096491;28;20236;-74
2021/12/23 00:59:21;;;;;;;22.07;14.70;;;;;;;-1.45;84.95;101268.31;5096287;28;20212;-74
2021/12/23 01:01:47;;;;;;;20.70;14.30;;;;;;;-1.38;83.90;101262.44;5096315;28;20211;-74
2021/12/23 01:04:15;;;;;;;17.23;12.80;;;;;;;-1.30;82.38;101267.72;5096474;28;20215;-73
2021/12/23 01:06:42;;;;;;;25.63;13.93;;;;;;;-1.26;82.58;101261.78;5096498;28;20197;-73
2021/12/23 01:09:08;;;;;;;20.47;14.07;;;;;;;-1.25;81.82;101235.25;5096188;28;20672;-73
2021/12/23 01:11:36;;;;;;;20.50;14.53;;;;;;;-1.21;81.22;101214.78;5096144;28;20196;-73
2021/12/23 01:14:26;;;;;;;21.07;13.37;;;;;;;-1.24;81.31;101219.00;5096022;28;20184;-73
2021/12/23 01:19:24;;;;;;;18.97;14.03;;;;;;;-1.36;82.04;101196.56;5096508;28;20178;-73
2021/12/23 01:21:50;;;;;;;16.73;14.40;;;;;;;-1.31;81.93;101191.50;5096217;28;20237;-73
2021/12/23 01:24:17;;;;;;;16.90;13.17;;;;;;;-1.23;81.67;101189.91;5095843;28;20205;-73
2021/12/23 01:26:44;;;;;;;21.57;14.50;;;;;;;-1.16;81.28;101209.69;5096103;28;20190;-73
2021/12/23 01:29:10;;;;;;;23.50;14.70;;;;;;;-1.12;81.03;101203.78;5096046;28;20239;-73
2021/12/23 01:31:38;;;;;;;17.37;13.60;;;;;;;-1.18;81.18;101194.28;5095771;28;20184;-73
2021/12/23 01:34:06;;;;;;;19.53;14.13;;;;;;;-1.17;81.08;101184.84;5095667;28;20201;-73
2021/12/23 01:36:33;;;;;;;16.20;14.10;;;;;;;-1.05;80.03;101179.91;5095942;28;20241;-73
2021/12/23 01:39:00;;;;;;;19.90;13.67;;;;;;;-1.03;80.01;101169.63;5095883;28;20236;-73
2021/12/23 01:41:28;;;;;;;21.63;14.30;;;;;;;-1.13;80.26;101166.09;5095564;28;20330;-73
2021/12/23 01:43:55;;;;;;;16.10;12.97;;;;;;;-1.11;80.53;101162.69;5096013;28;20193;-73
2021/12/23 01:46:22;;;;;;;25.00;15.30;;;;;;;-1.00;80.00;101178.25;5095798;28;20189;-73
2021/12/23 01:48:50;;;;;;;25.67;14.07;;;;;;;-1.03;79.16;101183.34;5095451;28;20214;-73
2021/12/23 01:51:16;;;;;;;26.17;15.93;;;;;;;-0.99;79.15;101164.56;5095703;28;20181;-73
2021/12/23 01:53:43;;;;;;;20.33;13.93;;;;;;;-0.98;79.03;101161.16;5095335;28;20187;-73
2021/12/23 01:56:09;;;;;;;18.50;13.80;;;;;;;-1.06;79.20;101156.75;5095235;28;20203;-73
2021/12/23 01:58:40;;;;;;;27.00;15.10;;;;;;;-1.05;79.14;101164.47;5094088;28;20527;-73
2021/12/23 02:01:08;;;;;;;34.83;16.17;;;;;;;-0.95;78.27;101175.72;5095440;28;20198;-73
2021/12/23 02:03:37;;;;;;;18.00;14.33;;;;;;;-0.92;78.54;101171.50;5094576;28;20274;-73
2021/12/23 02:06:04;;;;;;;23.80;15.63;;;;;;;-0.98;78.68;101166.28;5095057;28;20616;-73
2021/12/23 02:08:35;;;;;;;19.60;14.40;;;;;;;-0.95;78.54;101155.16;5095053;28;20194;-73
2021/12/23 02:11:04;;;;;;;17.47;13.03;;;;;;;-1.11;78.94;101151.53;5095379;28;20552;-73
2021/12/23 02:13:32;;;;;;;20.90;14.57;;;;;;;-1.18;79.26;101157.44;5095250;28;20184;-73
2021/12/23 02:15:59;;;;;;;18.87;14.33;;;;;;;-1.22;79.42;101166.78;5094821;28;20216;-73
2021/12/23 02:18:26;;;;;;;20.97;14.80;;;;;;;-1.14;79.21;101165.22;5095090;28;20185;-73
2021/12/23 02:20:53;;;;;;;23.93;14.50;;;;;;;-1.12;79.21;101154.97;5094729;28;20210;-73
2021/12/23 02:23:20;;;;;;;19.30;13.93;;;;;;;-1.03;79.00;101161.91;5095019;28;20239;-73
2021/12/23 02:25:47;;;;;;;20.50;14.77;;;;;;;-1.19;79.49;101163.44;5094652;28;20233;-73
2021/12/23 02:28:16;;;;;;;20.77;13.30;;;;;;;-1.21;79.85;101152.28;5094574;28;20188;-73
2021/12/23 02:30:42;;;;;;;17.77;13.17;;;;;;;-1.28;79.81;101141.06;5094839;28;20186;-73
2021/12/23 02:33:10;;;;;;;17.73;14.17;;;;;;;-1.30;80.05;101136.72;5095069;28;20225;-73
2021/12/23 02:35:38;;;;;;;18.47;14.10;;;;;;;-1.32;80.35;101138.41;5094518;28;20259;-73
2021/12/23 02:38:04;;;;;;;20.10;13.80;;;;;;;-1.41;80.76;101134.88;5094484;28;20225;-73
2021/12/23 02:40:39;;;;;;;19.93;14.73;;;;;;;-1.29;80.61;101138.44;5094631;28;20243;-73
2021/12/23 02:43:22;;;;;;;15.63;13.37;;;;;;;-1.24;80.43;101127.38;5094959;28;20170;-73
2021/12/23 02:45:51;;;;;;;19.57;13.60;;;;;;;-1.36;81.08;101119.50;5094303;28;20215;-73
2021/12/23 02:48:32;;;;;;;19.70;12.90;;;;;;;-1.46;81.57;101123.66;5094290;28;20625;-73
2021/12/23 02:51:00;;;;;;;23.17;13.90;;;;;;;-1.47;81.77;101115.94;5094560;28;20184;-73
2021/12/23 02:53:26;;;;;;;17.20;13.23;;;;;;;-1.42;81.89;101116.88;5094485;28;20246;-73
2021/12/23 02:55:55;;;;;;;15.87;13.63;;;;;;;-1.38;81.94;101106.66;5094099;28;20251;-73
2021/12/23 02:58:21;;;;;;;16.77;13.47;;;;;;;-1.31;82.00;101106.75;5094098;28;20236;-73
2021/12/23 03:00:51;;;;;;;18.97;12.60;;;;;;;-1.26;81.87;101105.97;5094521;28;20215;-73
2021/12/23 03:03:19;;;;;;;16.90;13.53;;;;;;;-1.23;82.28;101100.00;5094038;28;20250;-73
2021/12/23 03:05:54;;;;;;;17.73;13.40;;;;;;;-1.24;82.45;101090.56;5093891;28;20209;-73
2021/12/23 03:08:49;;;;;;;21.57;14.37;;;;;;;-1.25;82.51;101083.72;5094222;28;20517;-73
2021/12/23 03:11:19;;;;;;;19.87;14.37;;;;;;;-1.22;82.58;101101.72;5092341;28;20197;-73
2021/12/23 03:13:46;;;;;;;19.77;14.30;;;;;;;-1.21;82.72;101100.91;5093935;28;20259;-73
2021/12/23 03:16:13;;;;;;;19.30;14.17;;;;;;;-1.21;82.82;101091.50;5093433;28;20255;-73
2021/12/23 03:18:41;;;;;;;20.23;14.23;;;;;;;-1.15;82.55;101099.25;5094073;28;20195;-73
2021/12/23 03:21:07;;;;;;;21.73;14.47;;;;;;;-1.19;82.83;101096.63;5093917;28;20231;-73
2021/12/23 03:23:34;;;;;;;15.63;12.20;;;;;;;-1.21;82.97;101101.75;5093882;28;20718;-73
2021/12/23 03:26:01;;;;;;;19.57;14.53;;;;;;;-1.14;82.92;101101.00;5093472;28;20265;-73
2021/12/23 03:28:28;;;;;;;25.57;15.50;;;;;;;-1.09;82.96;101102.75;5092814;28;20182;-73
2021/12/23 03:30:54;;;;;;;20.73;14.23;;;;;;;-1.07;82.52;101095.91;5094182;28;20566;-73
2021/12/23 03:33:21;;;;;;;18.33;13.20;;;;;;;-1.08;82.52;101104.47;5094186;28;20586;-73
2021/12/23 03:35:48;;;;;;;20.43;14.27;;;;;;;-1.10;82.60;101101.88;5093497;28;20202;-73
2021/12/23 03:38:16;;;;;;;19.60;14.47;;;;;;;-1.12;82.88;101090.72;5093546;28;20184;-73
2021/12/23 03:40:42;;;;;;;17.23;13.60;;;;;;;-1.07;82.86;101101.03;5093444;28;20240;-73
2021/12/23 03:43:11;;;;;;;24.73;14.50;;;;;;;-1.02;82.75;101102.84;5093754;28;20718;-73
2021/12/23 03:45:38;;;;;;;19.73;14.50;;;;;;;-1.09;82.53;101089.91;5093378;28;20202;-73
2021/12/23 03:48:05;;;;;;;18.73;15.00;;;;;;;-1.04;82.76;101088.25;5093983;28;20187;-73
2021/12/23 03:50:31;;;;;;;23.67;15.57;;;;;;;-1.03;82.63;101079.69;5093387;28;20190;-73
2021/12/23 03:52:58;;;;;;;19.13;14.03;;;;;;;-1.03;82.48;101072.00;5093660;28;20653;-73
2021/12/23 03:55:24;;;;;;;27.30;15.07;;;;;;;-1.07;81.97;101081.38;5093257;28;20610;-73
2021/12/23 03:57:51;;;;;;;23.87;15.70;;;;;;;-1.10;81.97;101068.47;5093316;28;20172;-73
2021/12/23 04:00:19;;;;;;;33.63;18.17;;;;;;;-1.20;82.21;101066.66;5093220;28;20208;-73
2021/12/23 04:02:47;;;;;;;25.53;15.00;;;;;;;-1.18;82.11;101073.53;5093826;28;20196;-73
2021/12/23 04:05:14;;;;;;;25.03;15.67;;;;;;;-1.14;81.77;101077.00;5093204;28;20207;-73
2021/12/23 04:07:41;;;;;;;22.60;14.77;;;;;;;-1.29;81.83;101081.94;5093205;28;20190;-73
2021/12/23 04:10:14;;;;;;;24.67;16.33;;;;;;;-1.35;82.00;101082.75;5093181;28;20247;-73
2021/12/23 04:12:42;;;;;;;24.93;15.40;;;;;;;-1.36;82.35;101082.69;5093496;28;20174;-73
2021/12/23 04:15:08;;;;;;;22.47;15.00;;;;;;;-1.36;82.32;101075.84;5093707;28;20210;-73
2021/12/23 04:17:36;;;;;;;24.07;14.97;;;;;;;-1.43;82.63;101069.81;5093164;28;20191;-73
2021/12/23 04:23:03;;;;;;;26.57;15.83;;;;;;;-1.59;82.52;101057.59;5080079;28;20198;-73
2021/12/23 04:25:30;;;;;;;29.80;16.83;;;;;;;-1.63;83.08;101037.88;5093084;28;20216;-73
2021/12/23 04:28:01;;;;;;;31.80;19.43;;;;;;;-1.62;83.07;101031.03;5097158;28;20195;-73
2021/12/23 04:30:29;;;;;;;27.00;16.67;;;;;;;-1.69;82.74;101032.66;5097249;28;20228;-74
2021/12/23 04:32:56;;;;;;;18.80;13.63;;;;;;;-1.79;83.19;101017.94;5097258;28;20183;-73
2021/12/23 04:35:23;;;;;;;21.87;15.17;;;;;;;-1.88;83.61;101015.25;5096788;28;20212;-73
2021/12/23 04:37:49;;;;;;;25.37;15.33;;;;;;;-1.82;83.50;101023.03;5097330;28;20245;-73
2021/12/23 04:40:16;;;;;;;21.13;13.83;;;;;;;-1.80;83.42;101024.78;5096950;28;20186;-73
2021/12/23 04:42:43;;;;;;;19.13;13.43;;;;;;;-1.83;83.44;101018.75;5097032;28;20615;-73
2021/12/23 04:45:10;;;;;;;26.17;15.10;;;;;;;-1.83;83.44;101014.50;5097110;28;20206;-73
2021/12/23 04:47:37;;;;;;;31.77;15.73;;;;;;;-1.85;83.50;101013.63;5096556;28;20190;-73
2021/12/23 04:50:05;;;;;;;33.63;18.77;;;;;;;-1.84;83.42;101015.34;5096852;28;20186;-73
2021/12/23 04:52:32;;;;;;;26.90;16.47;;;;;;;-1.89;83.47;101016.97;5096483;28;20178;-73
2021/12/23 04:54:59;;;;;;;21.67;14.07;;;;;;;-1.90;83.50;101009.25;5096421;28;20205;-73
2021/12/23 04:57:25;;;;;;;18.93;14.43;;;;;;;-1.95;83.66;101007.47;5096344;28;20194;-73
2021/12/23 04:59:51;;;;;;;24.33;14.27;;;;;;;-2.03;83.77;100998.81;5096397;28;20198;-73
2021/12/23 05:02:19;;;;;;;24.33;14.80;;;;;;;-2.17;84.56;100984.91;5096571;28;20822;-73
2021/12/23 05:04:50;;;;;;;21.10;15.63;;;;;;;-2.21;84.62;100980.59;5096500;28;20269;-73
2021/12/23 05:07:18;;;;;;;25.43;15.77;;;;;;;-2.20;84.86;100968.63;5096576;28;20509;-73
2021/12/23 05:09:45;;;;;;;23.87;15.60;;;;;;;-2.10;85.24;100953.38;5096468;28;20190;-73
2021/12/23 05:12:12;;;;;;;21.70;15.33;;;;;;;-2.09;86.12;100944.00;5096702;28;20186;-73
2021/12/23 05:14:38;;;;;;;18.87;15.17;;;;;;;-2.00;85.94;100942.44;5096609;28;20616;-73
2021/12/23 05:17:05;;;;;;;23.43;15.63;;;;;;;-1.91;86.06;100951.09;5096622;28;20255;-73
2021/12/23 05:19:31;;;;;;;24.57;16.13;;;;;;;-1.80;86.21;100945.22;5096323;28;20208;-73
2021/12/23 05:21:58;;;;;;;27.60;17.47;;;;;;;-1.70;86.06;100938.53;5096432;28;20214;-73
2021/12/23 05:24:24;;;;;;;32.00;16.67;;;;;;;-1.56;85.99;100925.84;5096297;28;20214;-73
2021/12/23 05:26:51;;;;;;;32.13;18.73;;;;;;;-1.57;85.57;100912.16;5095773;28;20210;-73
2021/12/23 05:29:17;;;;;;;29.87;18.10;;;;;;;-1.46;85.23;100897.72;5096042;28;20237;-73
2021/12/23 05:31:44;;;;;;;31.03;18.30;;;;;;;-1.21;84.65;100887.69;5096068;28;20182;-73
2021/12/23 05:34:10;;;;;;;38.33;17.50;;;;;;;-1.09;84.43;100894.63;5095697;28;20190;-73
2021/12/23 05:36:37;;;;;;;28.60;17.17;;;;;;;-1.07;84.26;100887.78;5095640;28;20186;-73
2021/12/23 05:39:04;;;;;;;27.77;18.30;;;;;;;-0.98;84.05;100891.31;5094641;28;20186;-73
2021/12/23 05:41:31;;;;;;;32.97;17.90;;;;;;;-0.89;84.12;100887.97;5095462;28;20210;-73
2021/12/23 05:43:58;;;;;;;34.60;18.97;;;;;;;-0.86;83.09;100896.56;5095710;28;20198;-72
2021/12/23 05:46:25;;;;;;;33.47;19.00;;;;;;;-0.78;82.90;100899.22;5094495;28;20659;-72
2021/12/23 05:48:52;;;;;;;21.93;16.70;;;;;;;-0.77;82.83;100900.06;5095469;28;20278;-72
2021/12/23 05:51:19;;;;;;;31.60;17.60;;;;;;;-0.64;82.30;100899.31;5095377;28;20234;-72
2021/12/23 05:53:45;;;;;;;38.73;18.93;;;;;;;-0.53;81.81;100913.09;5095366;28;20202;-72
2021/12/23 05:56:12;;;;;;;28.43;17.27;;;;;;;-0.59;81.96;100911.31;5095787;28;20206;-72
2021/12/23 05:58:39;;;;;;;27.87;17.37;;;;;;;-0.52;81.63;100904.53;5095270;28;20589;-72
2021/12/23 06:01:05;;;;;;;23.90;16.90;;;;;;;-0.51;81.51;100906.22;5095162;28;20607;-72
2021/12/23 06:03:32;;;;;;;26.40;16.53;;;;;;;-0.50;81.36;100907.97;5095424;28;20547;-72
2021/12/23 06:05:59;;;;;;;27.50;17.30;;;;;;;-0.40;81.16;100904.59;5095047;28;20217;-72
2021/12/23 06:08:25;;;;;;;38.20;17.07;;;;;;;-0.23;80.76;100903.84;5095034;28;20654;-73
2021/12/23 06:10:52;;;;;;;31.10;18.60;;;;;;;-0.19;80.42;100900.44;5095010;28;20184;-73
2021/12/23 06:13:18;;;;;;;32.40;17.83;;;;;;;-0.20;80.49;100897.00;5095202;28;20193;-73
2021/12/23 06:15:45;;;;;;;27.03;17.30;;;;;;;-0.15;80.65;100908.16;5094939;28;20212;-73
2021/12/23 06:18:11;;;;;;;28.90;17.80;;;;;;;-0.15;80.83;100912.47;5095089;28;20189;-73
2021/12/23 06:20:40;;;;;;;24.97;18.03;;;;;;;-0.17;80.94;100916.75;5095262;28;20218;-73
2021/12/23 06:23:06;;;;;;;26.63;17.10;;;;;;;-0.28;81.26;100893.53;5094842;28;20237;-73
2021/12/23 06:25:33;;;;;;;22.47;16.83;;;;;;;-0.27;81.03;100887.53;5094633;28;20202;-73
2021/12/23 06:27:59;;;;;;;32.30;17.07;;;;;;;-0.24;81.25;100876.41;5094532;28;20184;-73
2021/12/23 06:30:26;;;;;;;28.77;17.53;;;;;;;-0.18;81.02;100872.16;5095123;28;20520;-73
2021/12/23 06:32:54;;;;;;;26.33;16.97;;;;;;;-0.25;81.00;100862.69;5094937;28;20304;-73
2021/12/23 06:35:25;;;;;;;30.13;17.20;;;;;;;-0.30;81.11;100867.78;5094309;28;20196;-73
2021/12/23 06:37:52;;;;;;;29.50;17.03;;;;;;;-0.33;81.42;100867.78;5094612;28;20169;-73
2021/12/23 06:40:20;;;;;;;26.20;16.63;;;;;;;-0.37;81.53;100858.31;5094895;28;20195;-73
2021/12/23 06:42:47;;;;;;;21.57;15.50;;;;;;;-0.32;81.47;100858.34;5094799;28;20262;-73
2021/12/23 06:45:14;;;;;;;32.83;19.77;;;;;;;-0.29;81.58;100860.94;5094442;28;20262;-73
2021/12/23 06:47:43;;;;;;;30.97;17.83;;;;;;;-0.23;81.39;100857.53;5094715;28;20184;-74
2021/12/23 06:50:11;;;;;;;34.97;20.43;;;;;;;-0.17;81.24;100867.84;5094360;28;20171;-74
2021/12/23 06:52:39;;;;;;;31.63;19.77;;;;;;;-0.17;81.06;100868.72;5094815;28;20172;-74
2021/12/23 06:55:07;;;;;;;38.83;19.03;;;;;;;-0.26;80.81;100870.41;5094056;28;20209;-73
2021/12/23 06:57:34;;;;;;;37.53;20.10;;;;;;;-0.22;80.70;100860.09;5094406;28;20554;-73
2021/12/23 07:00:01;;;;;;;34.83;19.77;;;;;;;-0.28;80.84;100857.53;5094041;28;20526;-73
2021/12/23 07:02:27;;;;;;;33.07;21.47;;;;;;;-0.28;80.96;100858.38;5094587;28;20589;-73
2021/12/23 07:04:54;;;;;;;38.83;19.93;;;;;;;-0.25;80.77;100867.81;5126852;27;20214;-73
2021/12/23 07:07:29;;;;;;;32.53;20.50;;;;;;;-0.23;80.96;100866.09;5093960;28;20528;-73
2021/12/23 07:09:56;;;;;;;32.90;19.67;;;;;;;-0.19;80.83;100867.00;5094224;28;20185;-73
2021/12/23 07:12:23;;;;;;;37.40;19.40;;;;;;;-0.14;80.47;100865.31;5093854;28;20644;-74
2021/12/23 07:14:50;;;;;;;33.47;19.70;;;;;;;-0.19;80.65;100860.13;5094001;28;20203;-74
2021/12/23 07:17:20;;;;;;;35.13;18.03;;;;;;;-0.16;80.46;100851.56;5094151;28;20172;-75
2021/12/23 07:19:47;;;;;;;28.50;17.87;;;;;;;-0.16;80.61;100842.13;5093761;28;20202;-75
2021/12/23 07:22:13;;;;;;;25.63;17.53;;;;;;;-0.23;80.84;100837.81;5093655;28;20732;-75
2021/12/23 07:24:41;;;;;;;23.87;16.40;;;;;;;-0.22;80.95;100841.25;5093644;28;20217;-75
2021/12/23 07:27:09;;;;;;;29.90;17.90;;;;;;;-0.22;81.00;100839.53;5093633;28;20205;-75
2021/12/23 07:29:35;;;;;;;28.63;18.60;;;;;;;-0.18;80.97;100851.56;5093860;28;20189;-74
2021/12/23 07:32:04;;;;;;;29.63;18.43;;;;;;;-0.23;80.83;100850.66;5093542;28;20192;-74
2021/12/23 07:34:30;;;;;;;32.43;19.63;;;;;;;-0.33;81.25;100849.78;5093434;28;20212;-74
2021/12/23 07:36:57;;;;;;;29.13;18.87;;;;;;;-0.34;81.37;100854.91;5093540;28;20182;-74
2021/12/23 07:39:24;;;;;;;30.23;17.10;;;;;;;-0.29;81.39;100861.81;5126322;27;20193;-74
2021/12/23 07:42:14;;;;;;;27.23;19.30;;;;;;;-0.32;81.29;100871.22;5093442;28;20196;-74
2021/12/23 07:44:42;;;;;;;26.27;16.60;;;;;;;-0.29;81.43;100876.34;5093690;28;20209;-74
2021/12/23 07:47:09;;;;;;;29.43;18.13;;;;;;;-0.25;81.45;100865.25;5093635;28;20720;-74
2021/12/23 07:49:35;;;;;;;21.43;16.60;;;;;;;-0.27;81.45;100864.38;5093345;28;20200;-74
2021/12/23 07:52:02;;;;;;;25.40;16.67;;;;;;;-0.29;81.31;100866.06;5093329;28;20258;-74
2021/12/23 07:54:29;;;;;;;32.43;17.50;;;;;;;-0.29;81.36;100860.94;5093794;28;20217;-74
2021/12/23 07:56:56;;;;;;;35.50;17.83;;;;;;;-0.35;81.30;100858.34;5093272;28;20217;-74
2021/12/23 07:59:22;;;;;;;27.53;16.53;;;;;;;-0.41;81.76;100853.16;5092106;28;20596;-74
2021/12/23 08:01:49;;;;;;;25.40;18.07;;;;;;;-0.51;81.97;100859.94;5095648;28;20577;-74
2021/12/23 08:04:16;;;;;;;24.03;16.80;;;;;;;-0.54;82.38;100857.38;5097374;28;20210;-75
2021/12/23 08:06:42;;;;;;;41.27;18.30;;;;;;;-0.58;82.99;100858.19;5097366;28;20654;-75
2021/12/23 08:09:09;;;;;;;33.70;18.73;;;;;;;-0.59;83.33;100859.91;5130523;27;20553;-75
2021/12/23 08:11:36;;;;;;;27.90;16.57;;;;;;;-0.48;82.91;100859.13;5097586;28;20164;-74
2021/12/23 08:14:03;;;;;;;29.87;17.80;;;;;;;-0.48;82.90;100854.84;5098086;28;20191;-74
2021/12/23 08:16:30;;;;;;;24.50;16.10;;;;;;;-0.40;82.65;100847.16;5097262;28;20247;-74
2021/12/23 08:18:57;;;;;;;32.90;18.27;;;;;;;-0.39;82.51;100854.03;5097138;28;20184;-75
2021/12/23 08:21:26;;;;;;;32.97;18.67;;;;;;;-0.38;82.60;100837.75;5097088;28;20266;-74
2021/12/23 08:23:52;;;;;;;31.57;19.23;;;;;;;-0.34;82.44;100852.34;5097254;28;20214;-73
2021/12/23 08:26:22;;;;;;;30.17;19.80;;;;;;;-0.31;82.44;100842.91;5097127;28;20241;-73
2021/12/23 08:28:48;;;;;;;37.23;20.23;;;;;;;-0.32;82.40;100848.91;5097241;28;20178;-73
2021/12/23 08:31:15;;;;;;;37.20;21.17;;;;;;;-0.25;82.64;100851.53;5096871;28;20199;-73
2021/12/23 08:33:41;;;;;;;34.50;18.90;;;;;;;-0.28;82.72;100845.53;5097393;28;20268;-73
2021/12/23 08:36:08;;;;;;;26.33;17.97;;;;;;;-0.28;82.80;100850.66;5096726;28;20207;-73
2021/12/23 08:38:34;;;;;;;38.73;20.50;;;;;;;-0.24;82.96;100855.81;5097260;28;20170;-73
2021/12/23 08:41:01;;;;;;;38.53;21.33;;;;;;;-0.15;82.86;100863.56;5096727;28;20188;-73
2021/12/23 08:43:27;;;;;;;38.43;20.87;;;;;;;-0.18;82.80;100858.41;5096935;28;20205;-73
2021/12/23 08:45:54;;;;;;;31.10;19.37;;;;;;;-0.14;82.75;100855.03;5096591;28;20741;-73
2021/12/23 08:48:20;;;;;;;48.03;19.50;;;;;;;-0.15;82.76;100858.41;5096572;28;20222;-73
2021/12/23 08:50:47;;;;;;;33.70;20.20;;;;;;;-0.09;82.57;100855.88;5097075;28;20216;-73
2021/12/23 08:53:13;;;;;;;33.03;19.57;;;;;;;-0.12;82.97;100861.88;5095858;28;20185;-73
2021/12/23 08:55:40;;;;;;;31.70;19.33;;;;;;;-0.03;82.75;100850.75;5096401;28;20730;-73
2021/12/23 08:58:07;;;;;;;36.33;20.10;;;;;;;0.01;82.62;100844.78;5096904;28;20190;-73
2021/12/23 09:00:36;;;;;;;33.93;20.23;;;;;;;-0.01;82.74;100843.91;5096439;28;20589;-73
2021/12/23 09:03:05;;;;;;;32.50;19.70;;;;;;;0.08;82.20;100840.53;5096713;28;20211;-73
2021/12/23 09:05:33;;;;;;;34.53;19.97;;;;;;;0.23;80.97;100841.44;5096459;28;20292;-73
2021/12/23 09:08:00;;;;;;;37.87;20.23;;;;;;;0.20;81.11;100841.41;5096288;28;20581;-73
2021/12/23 09:10:27;;;;;;;29.03;18.70;;;;;;;0.17;81.69;100836.25;5096771;28;20181;-73
2021/12/23 09:12:54;;;;;;;37.90;21.83;;;;;;;0.20;81.61;100833.69;5095608;28;20500;-73
2021/12/23 09:15:21;;;;;;;37.67;20.00;;;;;;;0.24;81.56;100831.97;5096056;28;20275;-73
2021/12/23 09:17:48;;;;;;;33.73;20.87;;;;;;;0.32;81.22;100826.84;5096632;28;20194;-73
2021/12/23 09:20:17;;;;;;;31.90;19.80;;;;;;;0.41;81.07;100825.16;5094826;28;20196;-73
2021/12/23 09:22:50;;;;;;;31.07;19.37;;;;;;;0.46;79.83;100822.59;5096472;28;20610;-73
2021/12/23 09:25:25;;;;;;;36.43;19.07;;;;;;;0.51;79.34;100815.75;5096155;28;20216;-73
2021/12/23 09:33:20;;;;;;;29.67;18.13;;;;;;;0.70;78.41;100802.00;5096366;28;20655;-73
2021/12/23 09:35:52;;;;;;;37.73;19.97;;;;;;;0.94;77.41;100800.28;5095990;28;20205;-73
2021/12/23 09:38:26;;;;;;;37.20;20.77;;;;;;;0.82;77.69;100793.41;5095983;28;20190;-73
2021/12/23 09:40:58;;;;;;;52.00;18.17;;;;;;;0.89;77.75;100799.41;5095596;28;20169;-73
2021/12/23 09:43:27;;;;;;;35.47;18.73;;;;;;;0.89;77.32;100789.97;5095783;28;20194;-73
2021/12/23 09:45:54;;;;;;;28.40;17.97;;;;;;;0.94;77.51;100779.66;5095535;28;20215;-73
2021/12/23 09:48:22;;;;;;;35.20;20.70;;;;;;;0.93;77.42;100772.75;5095459;28;20246;-73
2021/12/23 09:50:50;;;;;;;37.93;19.67;;;;;;;0.92;77.51;100766.75;5095699;28;20539;-73
2021/12/23 09:53:21;;;;;;;35.60;18.77;;;;;;;0.91;77.95;100762.47;5095611;28;20182;-73
2021/12/23 09:55:49;;;;;;;32.43;19.07;;;;;;;0.93;78.02;100765.91;5095239;28;20213;-73
2021/12/23 09:58:16;;;;;;;39.03;19.87;;;;;;;0.96;78.00;100749.59;5095265;28;20189;-73
2021/12/23 10:00:45;;;;;;;30.33;19.47;;;;;;;0.97;77.93;100744.41;5095194;28;20186;-72
2021/12/23 10:03:14;;;;;;;32.90;21.10;;;;;;;1.01;77.80;100743.56;5095707;28;20206;-72
2021/12/23 10:05:41;;;;;;;35.13;18.90;;;;;;;1.08;77.81;100747.00;5095119;28;20206;-71
2021/12/23 10:08:10;;;;;;;45.47;20.33;;;;;;;1.09;77.82;100739.25;5095259;28;20231;-73
2021/12/23 10:10:44;;;;;;;41.07;20.43;;;;;;;1.16;77.82;100734.94;5095297;28;20174;-72
2021/12/23 10:33:13;;;;;;;30.87;19.90;;;;;;;1.73;76.92;100696.88;5094842;28;20231;-72
2021/12/23 10:38:37;;;;;;;39.23;20.03;;;;;;;1.88;74.67;100694.19;5094328;28;20190;-72
2021/12/23 10:41:11;;;;;;;52.50;19.47;;;;;;;2.04;74.23;100686.34;5094429;28;20194;-72
2021/12/23 10:43:45;;;;;;;32.00;18.07;;;;;;;2.09;74.24;100689.75;5094742;28;20199;-72
2021/12/23 10:46:24;;;;;;;27.23;17.73;;;;;;;2.15;74.82;100682.81;5094312;28;20259;-72
2021/12/23 10:48:55;;;;;;;24.93;16.73;;;;;;;2.17;74.53;100669.91;5094859;28;20177;-71
2021/12/23 10:51:22;;;;;;;26.87;16.67;;;;;;;2.20;74.83;100662.09;5094744;28;20223;-71
2021/12/23 10:54:21;;;;;;;29.17;16.77;;;;;;;2.27;74.61;100658.59;5094761;28;20186;-71
2021/12/23 10:59:25;;;;;;;20.83;14.13;;;;;;;2.58;71.34;100642.84;5094342;28;20170;-71
2021/12/23 11:02:17;;;;;;;20.90;14.33;;;;;;;2.61;71.29;100637.63;5094213;28;20186;-71
2021/12/23 11:05:00;;;;;;;25.57;15.60;;;;;;;2.83;71.21;100644.28;5093991;28;20293;-72
2021/12/23 11:07:40;;;;;;;25.77;15.07;;;;;;;2.86;71.79;100643.38;5094283;28;20229;-72
2021/12/23 11:10:34;;;;;;;20.20;14.17;;;;;;;2.99;70.67;100639.78;5094552;28;20167;-72
2021/12/23 11:27:31;;;;;;;27.10;14.83;;;;;;;3.46;70.54;100602.97;5093852;28;20205;-72
2021/12/23 11:41:14;;;;;;;19.63;12.40;;;;;;;3.82;69.08;100577.41;5093447;28;20168;-72
2021/12/23 11:43:52;;;;;;;19.17;12.43;;;;;;;3.91;68.72;100568.63;5093674;28;20196;-72
2021/12/23 11:46:24;;;;;;;28.17;14.97;;;;;;;4.05;67.62;100566.66;5093769;28;20577;-73
2021/12/23 11:48:54;;;;;;;18.73;13.23;;;;;;;4.10;67.64;100564.88;5094156;28;20178;-72
2021/12/23 11:51:56;;;;;;;21.40;13.00;;;;;;;4.13;66.93;100562.22;5094361;28;20174;-72
2021/12/23 11:54:23;;;;;;;17.00;12.33;;;;;;;4.10;67.80;100552.75;5091561;28;20225;-72
2021/12/23 11:57:01;;;;;;;19.57;13.40;;;;;;;4.24;66.56;100549.06;5092533;28;20184;-72
2021/12/23 11:59:28;;;;;;;22.10;14.00;;;;;;;4.18;67.25;100544.84;5093532;28;20209;-72
2021/12/23 12:01:55;;;;;;;23.50;13.37;;;;;;;4.10;67.18;100541.56;5093707;28;20270;-72
2021/12/23 12:04:24;;;;;;;19.67;13.70;;;;;;;4.26;66.68;100531.75;5093142;28;20209;-72
2021/12/23 12:06:53;;;;;;;14.83;12.53;;;;;;;4.31;67.60;100533.38;5093180;28;20543;-72
2021/12/23 12:09:32;;;;;;;19.60;12.93;;;;;;;4.39;68.00;100528.06;5093203;28;20238;-73
2021/12/23 12:11:58;;;;;;;29.33;14.00;;;;;;;4.40;67.06;100524.56;5093482;28;20223;-73
2021/12/23 12:14:40;;;;;;;25.10;13.77;;;;;;;4.55;67.09;100526.88;5093049;28;20698;-73
2021/12/23 12:17:33;;;;;;;15.30;13.00;;;;;;;4.54;66.52;100532.94;5093398;28;20170;-72
2021/12/23 12:20:34;;;;;;;16.00;13.30;;;;;;;4.47;66.97;100525.31;5093433;28;20186;-72
2021/12/23 12:23:02;;;;;;;17.27;13.90;;;;;;;4.62;67.31;100518.09;5093006;28;20208;-72
2021/12/23 12:25:29;;;;;;;19.43;13.40;;;;;;;4.58;66.89;100507.81;5092981;28;20617;-72
2021/12/23 12:27:55;;;;;;;19.10;13.07;;;;;;;4.60;66.51;100506.91;5093027;28;20186;-72